Time;durP1;ratioP1;P1;durP2;ratioP2;P2;SDS_P1;SDS_P2;PMS_P1;PMS_P2;Temp;Humidity;BMP_temperature;BMP_pressure;BME280_temperature;BME280_humidity;BME280_pressure;Samples;Min_cycle;Max_cycle;Signal;HPM_P1;HPM_P2
2022/12/13 00:01:14;;;;;;;136.70;53.60;;;-3.70;99.90;;;;;;4998631;28;20437;-89
2022/12/13 00:03:40;;;;;;;130.73;53.53;;;-4.20;99.90;;;;;;5030266;28;20392;-89
2022/12/13 00:06:07;;;;;;;140.73;56.47;;;-4.20;99.90;;;;;;5014515;28;20060;-90
2022/12/13 00:08:33;;;;;;;128.50;53.87;;;-4.30;99.90;;;;;;5007923;28;20137;-89
2022/12/13 00:11:00;;;;;;;129.73;56.20;;;-4.30;99.90;;;;;;5031131;28;20681;-88
2022/12/13 00:13:28;;;;;;;122.50;53.10;;;-4.30;99.90;;;;;;5013064;28;20133;-89
2022/12/13 00:16:06;;;;;;;123.07;52.57;;;-4.40;99.90;;;;;;5030408;28;20124;-89
2022/12/13 00:18:33;;;;;;;129.33;52.57;;;-4.30;99.90;;;;;;5007494;28;20065;-88
2022/12/13 00:21:02;;;;;;;105.87;47.63;;;-4.30;99.90;;;;;;5014442;28;20055;-89
2022/12/13 00:23:29;;;;;;;117.93;46.90;;;-4.40;99.90;;;;;;4999010;28;20045;-89
2022/12/13 00:26:00;;;;;;;115.33;45.47;;;-4.50;99.90;;;;;;5028620;28;20064;-89
2022/12/13 00:28:26;;;;;;;108.13;47.22;;;-4.70;99.90;;;;;;5003426;28;20045;-89
2022/12/13 00:30:57;;;;;;;104.27;43.17;;;-4.50;99.90;;;;;;5013572;28;20041;-88
2022/12/13 00:33:22;;;;;;;99.18;44.90;;;-4.60;99.90;;;;;;5012522;28;20068;-87
2022/12/13 00:35:48;;;;;;;104.07;42.40;;;-4.70;99.90;;;;;;5030514;28;20045;-89
2022/12/13 00:38:14;;;;;;;107.53;44.83;;;-4.70;99.90;;;;;;4990912;28;20093;-87
2022/12/13 00:40:42;;;;;;;94.27;41.53;;;-4.70;99.90;;;;;;5030632;28;20061;-88
2022/12/13 00:43:09;;;;;;;88.73;39.67;;;-4.70;99.90;;;;;;5029043;28;20111;-89
2022/12/13 00:45:37;;;;;;;89.20;40.07;;;-3.90;99.90;;;;;;5013955;28;20057;-89
2022/12/13 00:48:04;;;;;;;93.40;40.27;;;-5.00;99.90;;;;;;5024468;28;20072;-88
2022/12/13 00:50:30;;;;;;;89.07;40.57;;;-5.10;99.90;;;;;;5013810;28;20057;-88
2022/12/13 00:52:58;;;;;;;83.80;38.60;;;-5.20;99.90;;;;;;4996167;28;20049;-86
2022/12/13 00:55:25;;;;;;;85.97;39.73;;;-5.20;99.90;;;;;;5029694;28;20085;-89
2022/12/13 00:57:51;;;;;;;81.57;38.40;;;-5.30;99.90;;;;;;5004644;28;20391;-88
2022/12/13 01:00:18;;;;;;;87.10;38.37;;;-5.30;99.90;;;;;;4997959;28;20053;-88
2022/12/13 01:02:44;;;;;;;81.30;38.17;;;-5.30;99.90;;;;;;4996240;28;20124;-89
2022/12/13 01:05:11;;;;;;;92.40;41.20;;;-5.30;99.90;;;;;;5013471;28;20057;-89
2022/12/13 01:07:37;;;;;;;85.53;38.40;;;-5.20;99.90;;;;;;4990383;28;20118;-87
2022/12/13 01:10:10;;;;;;;85.60;39.57;;;-5.30;99.90;;;;;;5015173;28;20055;-90
2022/12/13 01:12:39;;;;;;;59.00;27.17;;;-5.20;99.90;;;;;;5028648;28;20049;-89
2022/12/13 01:15:06;;;;;;;80.33;36.77;;;-5.30;99.90;;;;;;5014561;28;20054;-88
2022/12/13 01:17:34;;;;;;;83.03;37.17;;;-5.30;99.90;;;;;;5006837;28;20068;-88
2022/12/13 01:20:01;;;;;;;76.43;34.30;;;-5.30;99.90;;;;;;5014324;28;20061;-88
2022/12/13 01:22:29;;;;;;;70.47;36.10;;;-5.40;99.90;;;;;;5028475;28;20052;-90
2022/12/13 01:24:55;;;;;;;77.60;34.97;;;-5.40;99.90;;;;;;5013607;28;20049;-89
2022/12/13 01:27:21;;;;;;;81.47;36.53;;;-5.40;99.90;;;;;;4996445;28;20085;-89
2022/12/13 01:29:46;;;;;;;82.00;36.43;;;-5.40;99.90;;;;;;5015627;28;20099;-88
2022/12/13 01:32:12;;;;;;;90.13;36.67;;;-5.30;99.90;;;;;;5028187;28;20049;-89
2022/12/13 01:34:38;;;;;;;84.53;37.40;;;-5.30;99.90;;;;;;5013162;28;20439;-88
2022/12/13 01:37:03;;;;;;;76.40;35.73;;;-5.30;99.90;;;;;;5007260;28;20314;-89
2022/12/13 01:39:29;;;;;;;74.07;35.47;;;-5.30;99.90;;;;;;5012186;28;20083;-87
2022/12/13 01:41:58;;;;;;;72.23;35.27;;;-5.30;99.90;;;;;;5013295;28;20547;-89
2022/12/13 01:44:55;;;;;;;74.17;34.53;;;-5.40;99.90;;;;;;5028491;28;20319;-88
2022/12/13 01:47:48;;;;;;;74.30;34.67;;;-5.40;99.90;;;;;;5000110;28;20303;-88
2022/12/13 01:50:20;;;;;;;70.77;33.87;;;-5.30;99.90;;;;;;5038807;28;20053;-88
2022/12/13 01:52:46;;;;;;;70.60;34.77;;;-5.40;99.90;;;;;;5028198;28;20296;-88
2022/12/13 01:55:15;;;;;;;81.50;35.53;;;-5.40;99.90;;;;;;5012657;28;20569;-89
2022/12/13 01:57:44;;;;;;;75.37;34.63;;;-5.30;99.90;;;;;;5004313;28;20041;-88
2022/12/13 02:00:10;;;;;;;79.90;36.70;;;-5.30;99.90;;;;;;5029922;28;20057;-88
2022/12/13 02:02:36;;;;;;;82.70;36.00;;;-5.20;99.90;;;;;;5011829;28;20546;-89
2022/12/13 02:05:02;;;;;;;78.20;37.37;;;-5.20;99.90;;;;;;5012914;28;20292;-88
2022/12/13 02:07:31;;;;;;;84.20;38.33;;;-5.20;99.90;;;;;;5023063;28;20194;-89
2022/12/13 02:10:00;;;;;;;87.20;37.60;;;-5.20;99.90;;;;;;5012931;28;20503;-88
2022/12/13 02:12:28;;;;;;;78.50;36.27;;;-5.10;99.90;;;;;;5011808;28;20284;-88
2022/12/13 02:14:55;;;;;;;74.60;32.20;;;-5.20;99.90;;;;;;5014702;28;20283;-88
2022/12/13 02:17:51;;;;;;;69.83;31.87;;;-5.20;99.90;;;;;;5008346;28;20068;-89
2022/12/13 02:20:44;;;;;;;65.30;31.10;;;-5.30;99.90;;;;;;5014610;28;20072;-88
2022/12/13 02:23:13;;;;;;;65.00;31.47;;;-5.40;99.90;;;;;;5026792;28;20046;-88
2022/12/13 02:26:18;;;;;;;68.90;31.60;;;-5.50;99.90;;;;;;5024383;28;20480;-88
2022/12/13 02:29:04;;;;;;;59.80;29.63;;;-5.60;99.90;;;;;;5029650;28;20665;-89
2022/12/13 02:31:59;;;;;;;58.87;30.63;;;-5.80;99.90;;;;;;5029798;28;20356;-88
2022/12/13 02:34:29;;;;;;;66.67;31.53;;;-5.80;99.90;;;;;;5053852;28;20041;-89
2022/12/13 02:37:06;;;;;;;46.55;23.88;;;-5.80;99.90;;;;;;5044884;28;20330;-88
2022/12/13 02:39:37;;;;;;;63.53;28.27;;;-5.80;99.90;;;;;;5054131;28;20053;-89
2022/12/13 02:42:22;;;;;;;56.07;28.67;;;-5.90;99.90;;;;;;5053649;28;20323;-88
2022/12/13 02:44:57;;;;;;;53.53;27.87;;;-6.00;99.90;;;;;;5052803;28;20052;-88
2022/12/13 02:47:25;;;;;;;53.90;27.00;;;-6.00;99.90;;;;;;5048727;28;20506;-89
2022/12/13 02:49:56;;;;;;;56.77;28.27;;;-6.10;99.90;;;;;;5038154;28;20291;-89
2022/12/13 02:52:26;;;;;;;52.58;26.45;;;-6.10;99.90;;;;;;5053536;28;20299;-88
2022/12/13 02:54:55;;;;;;;53.13;27.53;;;-6.20;99.90;;;;;;5067722;28;20132;-88
2022/12/13 02:57:41;;;;;;;53.90;28.17;;;-6.20;99.90;;;;;;5067280;28;20843;-89
2022/12/13 03:00:08;;;;;;;53.17;26.93;;;-6.30;99.90;;;;;;5057973;28;20531;-87
2022/12/13 03:02:33;;;;;;;67.13;29.73;;;-6.30;99.90;;;;;;5074363;28;20283;-89
2022/12/13 03:08:20;;;;;;;72.23;30.67;;;-6.00;99.90;;;;;;5045388;28;20064;-88
2022/12/13 03:11:10;;;;;;;83.13;37.00;;;-5.90;99.90;;;;;;5052998;28;20083;-88
2022/12/13 03:13:51;;;;;;;84.32;38.63;;;-5.50;99.90;;;;;;5034456;28;20045;-88
2022/12/13 03:16:38;;;;;;;91.72;39.58;;;-5.50;99.90;;;;;;5033278;28;20436;-89
2022/12/13 03:19:09;;;;;;;93.53;40.77;;;-5.30;99.90;;;;;;5051811;28;20053;-88
2022/12/13 03:21:44;;;;;;;99.13;43.13;;;-5.20;99.90;;;;;;5036940;28;20324;-89
2022/12/13 03:24:10;;;;;;;94.80;43.67;;;-5.20;99.90;;;;;;5033283;28;20339;-88
2022/12/13 03:26:37;;;;;;;99.87;43.07;;;-5.20;99.90;;;;;;4994958;28;20312;-89
2022/12/13 03:29:04;;;;;;;103.27;45.57;;;-5.10;99.90;;;;;;5032874;28;20050;-88
2022/12/13 03:31:31;;;;;;;114.20;44.93;;;-5.00;99.90;;;;;;5051842;28;20773;-89
2022/12/13 03:33:57;;;;;;;97.03;44.33;;;-5.10;99.90;;;;;;5050534;28;20643;-88
2022/12/13 03:36:23;;;;;;;105.80;44.70;;;-5.00;99.90;;;;;;5047812;28;20311;-90
2022/12/13 03:38:52;;;;;;;100.10;43.50;;;-3.80;99.90;;;;;;5015455;28;20787;-87
2022/12/13 03:41:21;;;;;;;104.73;43.10;;;-5.00;99.90;;;;;;5031752;28;20291;-89
2022/12/13 03:43:47;;;;;;;96.10;44.13;;;-5.00;99.90;;;;;;5030572;28;20050;-89
2022/12/13 03:46:13;;;;;;;103.27;43.40;;;-5.00;99.90;;;;;;5012611;28;20294;-90
2022/12/13 03:48:39;;;;;;;103.43;44.37;;;-5.00;99.90;;;;;;5024051;28;20057;-88
2022/12/13 03:51:05;;;;;;;97.97;42.93;;;-5.00;99.90;;;;;;5032972;28;20053;-87
2022/12/13 03:53:32;;;;;;;90.60;42.97;;;-5.00;99.90;;;;;;5015486;28;20042;-89
2022/12/13 03:55:59;;;;;;;88.47;40.93;;;-5.00;99.90;;;;;;5031871;28;20379;-88
2022/12/13 03:58:24;;;;;;;90.10;42.20;;;-5.10;99.90;;;;;;5007639;28;20292;-88
2022/12/13 04:00:50;;;;;;;95.50;41.07;;;-5.10;99.90;;;;;;5031138;28;20060;-89
2022/12/13 04:03:16;;;;;;;91.50;41.17;;;-5.00;99.90;;;;;;5030575;28;20045;-89
2022/12/13 04:05:42;;;;;;;91.70;41.87;;;-5.10;99.90;;;;;;5031163;28;20662;-89
2022/12/13 04:08:07;;;;;;;93.90;43.83;;;-5.10;99.90;;;;;;5016994;28;20050;-89
2022/12/13 04:10:34;;;;;;;92.30;42.43;;;-4.30;99.90;;;;;;4995258;28;20535;-88
2022/12/13 04:15:47;;;;;;;96.90;43.83;;;-5.00;99.90;;;;;;5011503;28;20045;-90
2022/12/13 04:18:19;;;;;;;92.07;42.17;;;-5.10;99.90;;;;;;5029151;28;20296;-88
2022/12/13 04:20:46;;;;;;;94.80;42.90;;;-4.80;99.90;;;;;;5031667;28;20140;-89
2022/12/13 04:23:11;;;;;;;93.10;44.03;;;-5.10;99.90;;;;;;5006728;28;20323;-88
2022/12/13 04:25:38;;;;;;;102.20;48.27;;;-5.10;99.90;;;;;;5014144;28;20320;-89
2022/12/13 04:28:05;;;;;;;95.47;45.30;;;-5.10;99.90;;;;;;5006136;28;20373;-89
2022/12/13 04:30:31;;;;;;;83.37;40.67;;;-5.10;99.90;;;;;;5015107;28;20287;-88
2022/12/13 04:32:57;;;;;;;81.27;37.13;;;-5.00;99.90;;;;;;5029922;28;20045;-88
2022/12/13 04:35:23;;;;;;;75.80;36.73;;;-5.10;99.90;;;;;;4997788;28;20051;-89
2022/12/13 04:37:50;;;;;;;71.93;35.30;;;-5.20;99.90;;;;;;4974811;28;20037;-88
2022/12/13 04:40:15;;;;;;;80.10;39.07;;;-5.20;99.90;;;;;;5030272;28;20476;-89
2022/12/13 04:42:41;;;;;;;77.73;39.10;;;-5.20;99.90;;;;;;4994358;28;20363;-88
2022/12/13 04:45:08;;;;;;;73.47;37.03;;;-5.20;99.90;;;;;;5030804;28;20049;-88
2022/12/13 04:47:34;;;;;;;66.77;34.33;;;-5.20;99.90;;;;;;5023339;28;20435;-89
2022/12/13 04:50:00;;;;;;;58.57;31.87;;;-5.40;99.90;;;;;;5013510;28;20045;-87
2022/12/13 04:52:26;;;;;;;76.00;34.93;;;-5.50;99.90;;;;;;5029951;28;20047;-89
2022/12/13 04:54:52;;;;;;;68.30;34.23;;;-5.50;99.90;;;;;;5013998;28;20538;-88
2022/12/13 04:57:17;;;;;;;67.57;32.57;;;-5.40;99.90;;;;;;5023159;28;20049;-89
2022/12/13 04:59:45;;;;;;;57.57;30.57;;;-5.50;99.90;;;;;;5015060;28;20080;-90
2022/12/13 05:02:11;;;;;;;59.33;30.40;;;-5.70;99.90;;;;;;5016516;28;20339;-91
2022/12/13 05:04:38;;;;;;;61.53;31.17;;;-5.70;99.90;;;;;;5031427;28;20330;-92
2022/12/13 05:07:04;;;;;;;57.57;29.57;;;-5.70;99.90;;;;;;4991226;28;20122;-90
2022/12/13 05:09:29;;;;;;;56.37;28.80;;;-5.80;99.90;;;;;;5013417;28;20072;-89
2022/12/13 05:11:58;;;;;;;71.77;32.33;;;-5.80;99.90;;;;;;5026811;28;20522;-90
2022/12/13 05:14:24;;;;;;;55.90;29.67;;;-5.90;99.90;;;;;;5018801;28;20288;-87
2022/12/13 05:16:51;;;;;;;59.03;31.43;;;-5.90;99.90;;;;;;4991638;28;20132;-91
2022/12/13 05:19:17;;;;;;;52.60;28.30;;;-5.90;99.90;;;;;;4997543;28;20132;-88
2022/12/13 05:21:42;;;;;;;61.23;29.60;;;-5.90;99.90;;;;;;5014244;28;20402;-89
2022/12/13 05:24:09;;;;;;;61.27;29.73;;;-6.00;99.90;;;;;;4987319;28;20054;-89
2022/12/13 05:26:35;;;;;;;67.30;31.87;;;-6.00;99.90;;;;;;4992775;28;20045;-90
2022/12/13 05:29:00;;;;;;;59.90;31.27;;;-6.00;99.90;;;;;;4994058;28;20294;-89
2022/12/13 05:31:26;;;;;;;57.70;28.83;;;-6.00;99.90;;;;;;5028767;28;20381;-89
2022/12/13 05:33:53;;;;;;;54.83;28.40;;;-6.10;99.90;;;;;;5011639;28;20080;-88
2022/12/13 05:36:21;;;;;;;58.13;28.23;;;-6.10;99.90;;;;;;5009022;28;20067;-90
2022/12/13 05:38:46;;;;;;;65.97;31.20;;;-5.20;99.90;;;;;;5010164;28;20347;-89
2022/12/13 05:41:16;;;;;;;68.63;35.00;;;-6.10;99.90;;;;;;4996477;28;20299;-89
2022/12/13 05:43:41;;;;;;;77.83;34.83;;;-6.00;99.90;;;;;;5047716;28;20040;-90
2022/12/13 05:46:07;;;;;;;62.57;31.33;;;-6.00;99.90;;;;;;5056511;28;20294;-90
2022/12/13 05:48:33;;;;;;;62.80;29.47;;;-6.00;99.90;;;;;;5030790;28;20039;-89
2022/12/13 05:50:58;;;;;;;61.67;30.23;;;-6.10;99.90;;;;;;4996949;28;20100;-89
2022/12/13 05:53:24;;;;;;;53.10;28.00;;;-6.10;99.90;;;;;;5011206;28;20092;-89
2022/12/13 05:55:51;;;;;;;55.20;28.57;;;-6.20;99.90;;;;;;4997079;28;20049;-88
2022/12/13 05:58:16;;;;;;;58.57;28.87;;;-6.10;99.90;;;;;;5004232;28;20471;-88
2022/12/13 06:00:43;;;;;;;59.03;30.33;;;-6.10;99.90;;;;;;5011216;28;20303;-89
2022/12/13 06:03:08;;;;;;;66.63;30.60;;;-6.10;99.90;;;;;;5010492;28;20033;-89
2022/12/13 06:05:36;;;;;;;66.90;31.43;;;-5.80;99.90;;;;;;5031544;28;20295;-89
2022/12/13 06:08:02;;;;;;;71.93;33.23;;;-6.00;99.90;;;;;;5018837;28;20061;-89
2022/12/13 06:10:28;;;;;;;71.17;33.10;;;-6.00;99.90;;;;;;5028211;28;20303;-89
2022/12/13 06:12:53;;;;;;;68.43;34.00;;;-5.90;99.90;;;;;;5016751;28;20109;-89
2022/12/13 06:15:22;;;;;;;70.53;34.67;;;-6.00;99.90;;;;;;5049193;28;20283;-89
2022/12/13 06:17:49;;;;;;;73.47;37.67;;;-4.60;99.90;;;;;;5016054;28;20280;-89
2022/12/13 06:20:17;;;;;;;82.13;42.73;;;-6.10;99.90;;;;;;5059408;28;20164;-90
2022/12/13 06:22:43;;;;;;;69.07;33.63;;;-6.10;99.90;;;;;;5007796;28;20296;-89
2022/12/13 06:25:09;;;;;;;78.30;34.13;;;-6.10;99.90;;;;;;5047955;28;20292;-89
2022/12/13 06:27:41;;;;;;;65.93;32.80;;;-6.10;99.90;;;;;;5055086;28;20056;-90
2022/12/13 06:30:07;;;;;;;66.97;33.33;;;-6.00;99.90;;;;;;5043151;28;20297;-87
2022/12/13 06:32:33;;;;;;;75.60;34.70;;;-5.90;99.90;;;;;;5013347;28;20773;-90
2022/12/13 06:34:58;;;;;;;78.87;39.37;;;-5.80;99.90;;;;;;5012809;28;20328;-90
2022/12/13 06:37:24;;;;;;;84.73;40.97;;;-5.60;99.90;;;;;;5021278;28;20414;-90
2022/12/13 06:39:50;;;;;;;81.40;40.97;;;-5.60;99.90;;;;;;5029254;28;20135;-89
2022/12/13 06:42:17;;;;;;;86.57;44.33;;;-5.50;99.90;;;;;;5016139;28;20112;-89
2022/12/13 06:44:43;;;;;;;86.70;43.13;;;-5.50;99.90;;;;;;5011234;28;20052;-88
2022/12/13 06:47:10;;;;;;;90.07;41.77;;;-5.40;99.90;;;;;;5025171;28;20645;-89
2022/12/13 06:49:36;;;;;;;88.50;42.97;;;-5.40;99.90;;;;;;5025963;28;20057;-89
2022/12/13 06:52:03;;;;;;;90.30;42.00;;;-5.40;99.90;;;;;;5027463;28;20292;-89
2022/12/13 06:54:28;;;;;;;84.17;40.60;;;-5.40;99.90;;;;;;5026583;28;20089;-89
2022/12/13 06:56:54;;;;;;;90.30;43.63;;;-5.40;99.90;;;;;;5016669;28;20366;-89
2022/12/13 06:59:20;;;;;;;83.30;41.00;;;-5.40;99.90;;;;;;4992696;28;20061;-89
2022/12/13 07:01:47;;;;;;;78.40;40.27;;;-5.40;99.90;;;;;;5011596;28;20292;-88
2022/12/13 07:04:13;;;;;;;85.47;40.83;;;-5.40;99.90;;;;;;5011906;28;20062;-89
2022/12/13 07:06:38;;;;;;;87.53;42.47;;;-5.40;99.90;;;;;;5021429;28;20268;-89
2022/12/13 07:09:10;;;;;;;80.20;41.47;;;-5.40;99.90;;;;;;5010128;28;20060;-89
2022/12/13 07:11:38;;;;;;;84.90;41.43;;;-5.40;99.90;;;;;;5031870;28;20287;-88
2022/12/13 07:14:04;;;;;;;78.90;40.10;;;-5.40;99.90;;;;;;4997058;28;20084;-89
2022/12/13 07:16:30;;;;;;;78.33;40.20;;;-5.30;99.90;;;;;;5034359;28;20307;-88
2022/12/13 07:19:01;;;;;;;78.70;41.53;;;-5.30;99.90;;;;;;5014170;28;20064;-90
2022/12/13 07:21:28;;;;;;;86.20;40.90;;;-5.30;99.90;;;;;;5032927;28;20555;-90
2022/12/13 07:23:54;;;;;;;84.60;40.67;;;-5.30;99.90;;;;;;5044271;28;20276;-89
2022/12/13 07:26:20;;;;;;;88.23;42.40;;;-5.40;99.90;;;;;;5041698;28;20788;-91
2022/12/13 07:28:46;;;;;;;107.60;49.30;;;-5.30;99.90;;;;;;5059348;28;20052;-89
2022/12/13 07:31:13;;;;;;;86.20;43.50;;;-5.30;99.90;;;;;;5014403;28;20049;-91
2022/12/13 07:33:39;;;;;;;88.33;44.63;;;-5.30;99.90;;;;;;5038425;28;20294;-88
2022/12/13 07:36:17;;;;;;;87.43;42.60;;;-5.30;99.90;;;;;;5058392;28;20834;-90
2022/12/13 07:38:44;;;;;;;87.77;44.47;;;-5.20;99.90;;;;;;5056262;28;20381;-89
2022/12/13 07:41:10;;;;;;;76.53;39.67;;;-5.20;99.90;;;;;;5057014;28;20287;-89
2022/12/13 07:43:36;;;;;;;80.63;40.13;;;-5.20;99.90;;;;;;5028158;28;20769;-89
2022/12/13 07:46:04;;;;;;;89.80;39.13;;;-5.20;99.90;;;;;;5059980;28;20299;-89
2022/12/13 07:48:32;;;;;;;82.87;41.23;;;-5.20;99.90;;;;;;5039048;28;20106;-89
2022/12/13 07:51:06;;;;;;;76.30;37.50;;;-5.30;99.90;;;;;;5045558;28;20319;-88
2022/12/13 07:53:39;;;;;;;84.23;38.10;;;-5.20;99.90;;;;;;5043807;28;20052;-89
2022/12/13 07:56:08;;;;;;;76.90;37.43;;;-5.30;99.90;;;;;;5046748;28;20280;-90
2022/12/13 07:58:34;;;;;;;73.47;40.03;;;-4.40;99.90;;;;;;5052714;28;20047;-88
2022/12/13 08:01:06;;;;;;;72.23;38.80;;;-3.90;99.90;;;;;;5052229;28;20287;-89
2022/12/13 08:03:38;;;;;;;77.50;38.47;;;-5.20;99.90;;;;;;5034426;28;20349;-88
2022/12/13 08:06:11;;;;;;;80.63;39.73;;;-5.10;99.90;;;;;;5036982;28;20291;-89
2022/12/13 08:08:39;;;;;;;82.33;41.30;;;-5.00;99.90;;;;;;5049369;28;20287;-88
2022/12/13 08:11:08;;;;;;;84.67;40.57;;;-4.90;99.90;;;;;;5020348;28;20322;-88
2022/12/13 08:13:35;;;;;;;80.57;41.97;;;-5.30;99.90;;;;;;5022818;28;20139;-88
2022/12/13 08:16:07;;;;;;;86.88;40.53;;;-5.00;99.90;;;;;;5043102;28;20354;-88
2022/12/13 08:18:39;;;;;;;83.27;40.47;;;-4.90;99.90;;;;;;5025993;28;20112;-89
2022/12/13 08:21:08;;;;;;;82.37;40.97;;;-4.00;99.90;;;;;;4983073;28;20081;-89
2022/12/13 08:23:34;;;;;;;78.43;40.47;;;-3.60;99.90;;;;;;5030073;28;20071;-89
2022/12/13 08:26:04;;;;;;;78.23;39.83;;;-3.80;99.90;;;;;;5029378;28;20280;-90
2022/12/13 08:28:31;;;;;;;84.37;41.90;;;-4.80;99.90;;;;;;5036352;28;20284;-89
2022/12/13 08:31:13;;;;;;;83.27;41.53;;;-4.80;99.90;;;;;;5025044;28;20143;-90
2022/12/13 08:33:46;;;;;;;87.27;42.80;;;-4.60;99.90;;;;;;4987451;28;20521;-90
2022/12/13 08:36:15;;;;;;;70.80;37.77;;;-4.60;99.90;;;;;;4993618;28;20056;-90
2022/12/13 08:38:41;;;;;;;72.90;36.63;;;-4.60;99.90;;;;;;5014064;28;20144;-87
2022/12/13 08:41:08;;;;;;;74.03;39.73;;;-4.00;99.90;;;;;;5026648;28;20063;-90
2022/12/13 08:43:34;;;;;;;75.57;38.40;;;-4.40;99.90;;;;;;4982629;28;20058;-90
2022/12/13 08:46:00;;;;;;;73.87;37.30;;;-4.20;99.90;;;;;;4989732;28;20056;-91
2022/12/13 08:48:26;;;;;;;68.07;36.70;;;-4.10;99.90;;;;;;5025733;28;20114;-90
2022/12/13 08:50:52;;;;;;;67.00;37.87;;;-4.10;99.90;;;;;;4997744;28;20073;-91
2022/12/13 08:53:19;;;;;;;70.90;36.90;;;-4.10;99.90;;;;;;5020665;28;20064;-89
2022/12/13 08:55:45;;;;;;;73.93;39.03;;;-3.50;99.90;;;;;;4994177;28;20065;-91
2022/12/13 08:58:17;;;;;;;78.03;42.67;;;-4.20;99.90;;;;;;5009609;28;20037;-90
2022/12/13 09:00:45;;;;;;;77.57;36.67;;;-4.20;99.90;;;;;;4991951;28;20715;-90
2022/12/13 09:03:12;;;;;;;70.90;37.47;;;-4.20;99.90;;;;;;5014087;28;20050;-90
2022/12/13 09:05:38;;;;;;;77.40;38.03;;;-3.50;99.90;;;;;;5022106;28;20049;-90
2022/12/13 09:08:10;;;;;;;77.77;39.83;;;-4.10;99.90;;;;;;5031908;28;20048;-89
2022/12/13 09:10:36;;;;;;;76.13;39.77;;;-3.30;99.90;;;;;;5038918;28;20161;-90
2022/12/13 09:13:08;;;;;;;79.70;41.13;;;-4.10;99.90;;;;;;5041202;28;20053;-90
2022/12/13 09:15:38;;;;;;;84.07;41.67;;;-4.10;99.90;;;;;;5014903;28;20083;-90
2022/12/13 09:18:13;;;;;;;82.77;41.83;;;-4.00;99.90;;;;;;5037027;28;20183;-90
2022/12/13 09:20:41;;;;;;;81.60;42.30;;;-3.00;99.90;;;;;;5025531;28;20179;-91
2022/12/13 09:23:09;;;;;;;76.35;36.10;;;-3.90;99.90;;;;;;5027814;28;20065;-90
2022/12/13 09:25:37;;;;;;;86.63;43.43;;;-3.10;99.90;;;;;;5042705;28;20419;-91
2022/12/13 09:28:06;;;;;;;84.73;42.23;;;-3.80;99.90;;;;;;5013288;28;20064;-90
2022/12/13 09:30:33;;;;;;;81.07;42.23;;;-3.70;99.90;;;;;;5010896;28;20052;-90
2022/12/13 09:32:59;;;;;;;86.60;41.80;;;-3.70;99.90;;;;;;5041981;28;20065;-91
2022/12/13 09:35:27;;;;;;;92.43;45.40;;;-3.50;99.90;;;;;;5010547;28;20063;-89
2022/12/13 09:37:54;;;;;;;78.77;42.00;;;-3.40;99.90;;;;;;5020658;28;20067;-89
2022/12/13 09:40:25;;;;;;;86.57;46.07;;;-3.50;99.90;;;;;;5027102;28;20069;-90
2022/12/13 09:42:53;;;;;;;76.18;44.88;;;-2.70;99.90;;;;;;5011067;28;20049;-90
2022/12/13 09:45:21;;;;;;;82.63;45.50;;;-3.10;99.90;;;;;;5042493;28;20056;-89
2022/12/13 09:47:52;;;;;;;86.63;45.20;;;-3.10;99.90;;;;;;5014709;28;20087;-90
2022/12/13 09:50:23;;;;;;;83.95;45.90;;;-3.10;99.90;;;;;;5025083;28;20136;-89
2022/12/13 09:52:49;;;;;;;79.95;42.88;;;-3.10;99.90;;;;;;5036028;28;20053;-90
2022/12/13 09:55:32;;;;;;;77.83;41.93;;;-3.00;99.90;;;;;;4994458;28;20102;-90
2022/12/13 09:58:04;;;;;;;81.03;42.47;;;-2.40;99.90;;;;;;5034745;28;20069;-90
2022/12/13 10:00:36;;;;;;;78.07;45.20;;;-2.40;99.90;;;;;;5024353;28;20064;-90
2022/12/13 10:03:02;;;;;;;70.77;39.27;;;-2.80;99.90;;;;;;5033536;28;20057;-91
2022/12/13 10:05:43;;;;;;;89.73;49.60;;;-2.30;99.90;;;;;;5020184;28;20082;-91
2022/12/13 10:08:21;;;;;;;73.32;37.25;;;-2.70;99.90;;;;;;5032088;28;20057;-91
2022/12/13 10:10:50;;;;;;;88.37;49.20;;;-2.70;99.90;;;;;;5022206;28;20118;-90
2022/12/13 10:13:24;;;;;;;80.77;45.03;;;-2.50;99.90;;;;;;5035926;28;20408;-91
2022/12/13 10:16:06;;;;;;;69.07;40.03;;;-2.20;99.90;;;;;;5037510;28;20048;-91
2022/12/13 10:18:43;;;;;;;112.22;56.50;;;-1.90;99.90;;;;;;5016738;28;20132;-91
2022/12/13 10:21:38;;;;;;;74.67;42.57;;;-1.50;99.90;;;;;;5037377;28;20442;-90
2022/12/13 10:24:18;;;;;;;63.67;35.70;;;-0.10;99.90;;;;;;5032618;28;20068;-91
2022/12/13 10:26:45;;;;;;;;;;;-0.80;99.90;;;;;;5033737;28;20750;-92
2022/12/13 10:29:11;;;;;;;58.57;35.10;;;-0.50;99.90;;;;;;5003318;28;19928;-91
2022/12/13 10:31:46;;;;;;;60.20;35.77;;;-0.60;99.90;;;;;;5002225;28;21343;-91
2022/12/13 10:34:34;;;;;;;59.93;35.90;;;-0.50;99.90;;;;;;5004797;28;20115;-91
2022/12/13 10:37:25;;;;;;;60.83;34.70;;;-0.50;99.90;;;;;;4999358;28;20487;-92
2022/12/13 10:39:53;;;;;;;49.65;28.00;;;-0.30;99.90;;;;;;4987659;28;20057;-90
2022/12/13 10:42:21;;;;;;;55.30;32.90;;;-0.10;99.90;;;;;;4973497;28;20041;-91
2022/12/13 10:45:28;;;;;;;59.63;35.67;;;0.40;99.90;;;;;;5004500;28;20139;-92
2022/12/13 10:48:01;;;;;;;;;;;0.20;99.90;;;;;;4968402;28;20039;-92
2022/12/13 10:50:28;;;;;;;59.27;34.27;;;0.40;99.90;;;;;;5032628;28;19917;-91
2022/12/13 10:52:56;;;;;;;53.33;32.17;;;0.80;99.90;;;;;;5005030;28;20053;-92
2022/12/13 10:55:30;;;;;;;50.47;33.20;;;1.20;99.90;;;;;;4993597;28;20499;-91
2022/12/13 10:58:00;;;;;;;57.13;34.87;;;1.20;99.90;;;;;;5017136;28;20060;-91
2022/12/13 11:00:48;;;;;;;53.30;33.00;;;1.60;99.90;;;;;;5025602;28;21260;-91
2022/12/13 11:03:33;;;;;;;46.67;31.23;;;1.50;99.90;;;;;;5020713;28;20044;-91
2022/12/13 11:06:09;;;;;;;49.40;31.80;;;1.80;99.90;;;;;;5042657;28;20061;-93
2022/12/13 11:08:35;;;;;;;54.23;32.13;;;2.30;99.90;;;;;;5016067;28;20067;-92
2022/12/13 11:11:04;;;;;;;54.77;32.50;;;2.50;99.90;;;;;;5012731;28;20049;-91
2022/12/13 11:13:52;;;;;;;45.90;29.30;;;3.00;99.90;;;;;;5014557;28;20057;-91
2022/12/13 11:16:31;;;;;;;43.97;31.37;;;2.90;99.90;;;;;;5013116;28;20076;-93
2022/12/13 11:19:01;;;;;;;39.50;27.30;;;2.40;99.90;;;;;;5002575;28;20092;-90
2022/12/13 11:21:35;;;;;;;36.38;22.05;;;2.80;99.90;;;;;;4996740;28;20804;-89
2022/12/13 11:24:06;;;;;;;42.03;25.97;;;2.60;99.90;;;;;;4979369;28;20139;-89
2022/12/13 11:26:36;;;;;;;38.35;24.02;;;3.00;99.90;;;;;;5011991;28;20105;-92
2022/12/13 11:29:49;;;;;;;33.30;23.73;;;3.00;99.90;;;;;;5018409;28;20049;-90
2022/12/13 11:32:34;;;;;;;34.63;23.67;;;2.70;99.90;;;;;;4991085;28;20072;-92
2022/12/13 11:35:27;;;;;;;33.50;23.20;;;3.10;99.90;;;;;;5024165;28;20104;-89
2022/12/13 11:38:09;;;;;;;35.43;22.33;;;3.00;99.90;;;;;;5000596;28;20057;-91
2022/12/13 11:40:44;;;;;;;31.10;21.73;;;3.00;99.90;;;;;;5005393;28;20079;-90
2022/12/13 11:43:46;;;;;;;31.67;21.63;;;2.50;99.90;;;;;;5016515;28;20064;-90
2022/12/13 11:46:28;;;;;;;31.47;21.43;;;2.40;99.90;;;;;;5040633;28;20083;-92
2022/12/13 11:48:57;;;;;;;;;;;2.40;99.90;;;;;;5023268;28;20138;-91
2022/12/13 11:51:42;;;;;;;36.60;22.40;;;1.80;99.90;;;;;;5011930;28;21139;-90
2022/12/13 11:54:43;;;;;;;34.80;22.70;;;1.50;99.90;;;;;;5025795;28;21472;-89
2022/12/13 11:57:35;;;;;;;35.22;23.20;;;1.30;99.90;;;;;;5009113;28;20075;-89
2022/12/13 12:00:21;;;;;;;;;;;0.90;99.90;;;;;;4999222;28;20056;-90
2022/12/13 12:02:54;;;;;;;34.30;22.97;;;0.70;99.90;;;;;;5029967;28;19929;-89
2022/12/13 12:05:35;;;;;;;45.00;28.03;;;0.80;99.90;;;;;;5025060;28;20075;-90
2022/12/13 12:08:05;;;;;;;38.20;24.55;;;1.00;99.90;;;;;;5020900;28;20075;-90
2022/12/13 12:10:39;;;;;;;46.23;29.20;;;0.40;99.90;;;;;;5025148;28;20119;-90
2022/12/13 12:13:33;;;;;;;39.93;25.43;;;0.50;99.90;;;;;;5023889;28;20144;-90
2022/12/13 12:16:34;;;;;;;41.07;26.20;;;0.40;99.90;;;;;;5025347;28;20408;-88
2022/12/13 12:19:00;;;;;;;41.45;25.35;;;0.40;99.90;;;;;;5036834;28;20060;-90
2022/12/13 12:21:26;;;;;;;34.53;23.63;;;0.60;99.90;;;;;;5032916;28;20060;-91
2022/12/13 12:24:04;;;;;;;38.60;24.80;;;0.70;99.90;;;;;;5025264;28;20071;-91
2022/12/13 12:27:07;;;;;;;36.37;25.13;;;0.90;99.90;;;;;;5019610;28;20774;-90
2022/12/13 12:29:48;;;;;;;35.50;22.23;;;1.50;99.90;;;;;;5023839;28;20056;-89
2022/12/13 12:32:49;;;;;;;34.33;23.42;;;1.90;99.90;;;;;;5023774;28;20053;-90
2022/12/13 12:35:18;;;;;;;;;;;2.10;99.90;;;;;;5038511;28;20060;-89
2022/12/13 12:37:57;;;;;;;36.77;23.77;;;1.90;99.90;;;;;;5037454;28;19940;-90
2022/12/13 12:40:31;;;;;;;33.03;22.13;;;2.00;99.90;;;;;;5043260;28;20080;-90
2022/12/13 12:43:21;;;;;;;31.50;21.87;;;1.60;99.90;;;;;;5040954;28;20064;-90
2022/12/13 12:46:28;;;;;;;30.67;21.37;;;1.50;99.90;;;;;;5026227;28;20120;-90
2022/12/13 12:49:17;;;;;;;35.00;21.23;;;1.60;99.90;;;;;;5036292;28;20064;-90
2022/12/13 12:52:05;;;;;;;31.60;21.17;;;1.50;99.90;;;;;;5026413;28;20057;-90
2022/12/13 12:55:02;;;;;;;32.30;20.57;;;1.60;99.90;;;;;;5025886;28;20060;-89